sensor_id;sensor_type;location;lat;lon;timestamp;P1;durP1;ratioP1;P2;durP2;ratioP2
59300;SDS011;45073;52.740;6.784;2023-12-04T00:00:25;21.65;;;9.60;;
59300;SDS011;45073;52.740;6.784;2023-12-04T00:02:51;17.17;;;8.20;;
59300;SDS011;45073;52.740;6.784;2023-12-04T00:05:16;21.25;;;9.10;;
59300;SDS011;45073;52.740;6.784;2023-12-04T00:07:42;14.60;;;8.07;;
59300;SDS011;45073;52.740;6.784;2023-12-04T00:10:07;15.85;;;6.88;;
59300;SDS011;45073;52.740;6.784;2023-12-04T00:12:33;17.13;;;6.90;;
59300;SDS011;45073;52.740;6.784;2023-12-04T00:14:59;20.20;;;7.43;;
59300;SDS011;45073;52.740;6.784;2023-12-04T00:17:25;16.10;;;7.32;;
59300;SDS011;45073;52.740;6.784;2023-12-04T00:19:50;16.08;;;7.60;;
59300;SDS011;45073;52.740;6.784;2023-12-04T00:22:16;19.23;;;9.30;;
59300;SDS011;45073;52.740;6.784;2023-12-04T00:24:41;19.70;;;9.32;;
59300;SDS011;45073;52.740;6.784;2023-12-04T00:27:07;21.35;;;9.07;;
59300;SDS011;45073;52.740;6.784;2023-12-04T00:29:33;19.35;;;8.05;;
59300;SDS011;45073;52.740;6.784;2023-12-04T00:31:58;18.13;;;9.20;;
59300;SDS011;45073;52.740;6.784;2023-12-04T00:34:24;19.27;;;9.80;;
59300;SDS011;45073;52.740;6.784;2023-12-04T00:36:49;16.70;;;7.70;;
59300;SDS011;45073;52.740;6.784;2023-12-04T00:39:15;18.00;;;7.13;;
59300;SDS011;45073;52.740;6.784;2023-12-04T00:41:41;19.05;;;8.30;;
59300;SDS011;45073;52.740;6.784;2023-12-04T00:44:06;17.20;;;7.70;;
59300;SDS011;45073;52.740;6.784;2023-12-04T00:46:32;16.65;;;7.55;;
59300;SDS011;45073;52.740;6.784;2023-12-04T00:48:58;18.20;;;9.13;;
59300;SDS011;45073;52.740;6.784;2023-12-04T00:51:24;21.20;;;10.18;;
59300;SDS011;45073;52.740;6.784;2023-12-04T00:53:49;18.88;;;9.63;;
59300;SDS011;45073;52.740;6.784;2023-12-04T00:56:15;19.50;;;9.23;;
59300;SDS011;45073;52.740;6.784;2023-12-04T00:58:40;21.10;;;8.75;;
59300;SDS011;45073;52.740;6.784;2023-12-04T01:01:06;19.95;;;8.65;;
59300;SDS011;45073;52.740;6.784;2023-12-04T01:03:31;20.20;;;8.88;;
59300;SDS011;45073;52.740;6.784;2023-12-04T01:05:58;17.70;;;8.98;;
59300;SDS011;45073;52.740;6.784;2023-12-04T01:08:24;18.20;;;8.05;;
59300;SDS011;45073;52.740;6.784;2023-12-04T01:10:50;15.43;;;6.55;;
59300;SDS011;45073;52.740;6.784;2023-12-04T01:13:15;14.27;;;6.97;;
59300;SDS011;45073;52.740;6.784;2023-12-04T01:15:41;13.55;;;7.13;;
59300;SDS011;45073;52.740;6.784;2023-12-04T01:18:07;16.60;;;8.93;;
59300;SDS011;45073;52.740;6.784;2023-12-04T01:20:33;16.20;;;7.47;;
59300;SDS011;45073;52.740;6.784;2023-12-04T01:22:59;17.27;;;8.55;;
59300;SDS011;45073;52.740;6.784;2023-12-04T01:25:25;16.20;;;8.88;;
59300;SDS011;45073;52.740;6.784;2023-12-04T01:27:50;18.73;;;9.25;;
59300;SDS011;45073;52.740;6.784;2023-12-04T01:30:16;17.42;;;8.48;;
59300;SDS011;45073;52.740;6.784;2023-12-04T01:32:42;19.83;;;8.73;;
59300;SDS011;45073;52.740;6.784;2023-12-04T01:35:07;18.80;;;9.30;;
59300;SDS011;45073;52.740;6.784;2023-12-04T01:37:33;19.45;;;9.13;;
59300;SDS011;45073;52.740;6.784;2023-12-04T01:39:58;19.42;;;8.75;;
59300;SDS011;45073;52.740;6.784;2023-12-04T01:42:24;13.68;;;7.13;;
59300;SDS011;45073;52.740;6.784;2023-12-04T01:44:50;15.10;;;6.40;;
59300;SDS011;45073;52.740;6.784;2023-12-04T01:47:15;18.17;;;10.38;;
59300;SDS011;45073;52.740;6.784;2023-12-04T01:49:42;17.23;;;8.45;;
59300;SDS011;45073;52.740;6.784;2023-12-04T01:52:08;17.48;;;7.32;;
59300;SDS011;45073;52.740;6.784;2023-12-04T01:54:34;19.10;;;8.35;;
59300;SDS011;45073;52.740;6.784;2023-12-04T01:57:02;18.33;;;8.13;;
59300;SDS011;45073;52.740;6.784;2023-12-04T01:59:28;17.63;;;8.27;;
59300;SDS011;45073;52.740;6.784;2023-12-04T02:01:54;19.48;;;9.18;;
59300;SDS011;45073;52.740;6.784;2023-12-04T02:04:21;16.30;;;7.93;;
59300;SDS011;45073;52.740;6.784;2023-12-04T02:06:47;16.17;;;7.68;;
59300;SDS011;45073;52.740;6.784;2023-12-04T02:09:12;16.60;;;8.45;;
59300;SDS011;45073;52.740;6.784;2023-12-04T02:11:41;16.77;;;8.65;;
59300;SDS011;45073;52.740;6.784;2023-12-04T02:14:07;18.17;;;9.05;;
59300;SDS011;45073;52.740;6.784;2023-12-04T02:16:34;17.65;;;8.07;;
59300;SDS011;45073;52.740;6.784;2023-12-04T02:19:06;15.63;;;6.93;;
59300;SDS011;45073;52.740;6.784;2023-12-04T02:21:33;17.83;;;8.35;;
59300;SDS011;45073;52.740;6.784;2023-12-04T02:23:59;17.58;;;9.10;;
59300;SDS011;45073;52.740;6.784;2023-12-04T02:26:27;17.38;;;7.97;;
59300;SDS011;45073;52.740;6.784;2023-12-04T02:29:00;16.30;;;8.70;;
59300;SDS011;45073;52.740;6.784;2023-12-04T02:31:32;14.95;;;7.28;;
59300;SDS011;45073;52.740;6.784;2023-12-04T02:34:00;17.92;;;8.43;;
59300;SDS011;45073;52.740;6.784;2023-12-04T02:36:30;19.95;;;8.93;;
59300;SDS011;45073;52.740;6.784;2023-12-04T02:38:56;16.35;;;7.28;;
59300;SDS011;45073;52.740;6.784;2023-12-04T02:41:23;15.32;;;8.57;;
59300;SDS011;45073;52.740;6.784;2023-12-04T02:43:48;16.10;;;7.03;;
59300;SDS011;45073;52.740;6.784;2023-12-04T02:46:14;17.08;;;8.63;;
59300;SDS011;45073;52.740;6.784;2023-12-04T02:48:40;16.50;;;8.15;;
59300;SDS011;45073;52.740;6.784;2023-12-04T02:51:05;14.52;;;6.50;;
59300;SDS011;45073;52.740;6.784;2023-12-04T02:53:32;16.20;;;7.72;;
59300;SDS011;45073;52.740;6.784;2023-12-04T02:55:57;15.82;;;6.22;;
59300;SDS011;45073;52.740;6.784;2023-12-04T02:58:23;16.92;;;6.82;;
59300;SDS011;45073;52.740;6.784;2023-12-04T03:00:48;15.32;;;7.13;;
59300;SDS011;45073;52.740;6.784;2023-12-04T03:03:14;17.10;;;7.05;;
59300;SDS011;45073;52.740;6.784;2023-12-04T03:05:40;17.80;;;7.03;;
59300;SDS011;45073;52.740;6.784;2023-12-04T03:08:05;12.43;;;5.72;;
59300;SDS011;45073;52.740;6.784;2023-12-04T03:10:31;16.13;;;7.35;;
59300;SDS011;45073;52.740;6.784;2023-12-04T03:12:56;16.85;;;7.28;;
59300;SDS011;45073;52.740;6.784;2023-12-04T03:15:22;17.08;;;8.45;;
59300;SDS011;45073;52.740;6.784;2023-12-04T03:17:47;16.20;;;6.85;;
59300;SDS011;45073;52.740;6.784;2023-12-04T03:20:13;15.98;;;6.45;;
59300;SDS011;45073;52.740;6.784;2023-12-04T03:22:39;18.05;;;8.02;;
59300;SDS011;45073;52.740;6.784;2023-12-04T03:25:04;14.00;;;6.45;;
59300;SDS011;45073;52.740;6.784;2023-12-04T03:27:30;14.32;;;6.53;;
59300;SDS011;45073;52.740;6.784;2023-12-04T03:29:56;16.05;;;7.60;;
59300;SDS011;45073;52.740;6.784;2023-12-04T03:32:22;18.13;;;8.45;;
59300;SDS011;45073;52.740;6.784;2023-12-04T03:34:47;15.13;;;7.10;;
59300;SDS011;45073;52.740;6.784;2023-12-04T03:37:13;13.70;;;6.28;;
59300;SDS011;45073;52.740;6.784;2023-12-04T03:39:38;12.02;;;6.40;;
59300;SDS011;45073;52.740;6.784;2023-12-04T03:42:04;17.67;;;7.82;;
59300;SDS011;45073;52.740;6.784;2023-12-04T03:44:30;14.15;;;6.97;;
59300;SDS011;45073;52.740;6.784;2023-12-04T03:46:55;17.63;;;8.15;;
59300;SDS011;45073;52.740;6.784;2023-12-04T03:49:21;16.77;;;7.68;;
59300;SDS011;45073;52.740;6.784;2023-12-04T03:51:46;19.83;;;9.02;;
59300;SDS011;45073;52.740;6.784;2023-12-04T03:54:12;16.33;;;8.15;;
59300;SDS011;45073;52.740;6.784;2023-12-04T03:56:39;16.35;;;7.18;;
59300;SDS011;45073;52.740;6.784;2023-12-04T03:59:05;14.88;;;6.25;;
59300;SDS011;45073;52.740;6.784;2023-12-04T04:01:30;18.95;;;6.97;;
59300;SDS011;45073;52.740;6.784;2023-12-04T04:03:56;16.58;;;6.43;;
59300;SDS011;45073;52.740;6.784;2023-12-04T04:06:22;16.60;;;7.15;;
59300;SDS011;45073;52.740;6.784;2023-12-04T04:08:47;15.02;;;6.70;;
59300;SDS011;45073;52.740;6.784;2023-12-04T04:11:13;13.40;;;5.38;;
59300;SDS011;45073;52.740;6.784;2023-12-04T04:13:38;13.98;;;6.38;;
59300;SDS011;45073;52.740;6.784;2023-12-04T04:16:04;15.63;;;6.55;;
59300;SDS011;45073;52.740;6.784;2023-12-04T04:18:30;16.30;;;7.35;;
59300;SDS011;45073;52.740;6.784;2023-12-04T04:20:56;16.77;;;8.18;;
59300;SDS011;45073;52.740;6.784;2023-12-04T04:23:22;17.30;;;8.05;;
59300;SDS011;45073;52.740;6.784;2023-12-04T04:25:47;18.77;;;7.78;;
59300;SDS011;45073;52.740;6.784;2023-12-04T04:28:13;16.27;;;7.63;;
59300;SDS011;45073;52.740;6.784;2023-12-04T04:30:38;16.77;;;7.30;;
59300;SDS011;45073;52.740;6.784;2023-12-04T04:33:05;17.65;;;7.32;;
59300;SDS011;45073;52.740;6.784;2023-12-04T04:35:30;13.20;;;5.72;;
59300;SDS011;45073;52.740;6.784;2023-12-04T04:37:56;18.27;;;7.50;;
59300;SDS011;45073;52.740;6.784;2023-12-04T04:40:22;16.98;;;7.93;;
59300;SDS011;45073;52.740;6.784;2023-12-04T04:42:48;15.93;;;8.00;;
59300;SDS011;45073;52.740;6.784;2023-12-04T04:45:13;16.30;;;7.00;;
59300;SDS011;45073;52.740;6.784;2023-12-04T04:47:39;16.15;;;6.72;;
59300;SDS011;45073;52.740;6.784;2023-12-04T04:50:05;15.98;;;6.78;;
59300;SDS011;45073;52.740;6.784;2023-12-04T04:52:31;15.10;;;6.75;;
59300;SDS011;45073;52.740;6.784;2023-12-04T04:54:56;15.52;;;6.18;;
59300;SDS011;45073;52.740;6.784;2023-12-04T04:57:22;14.15;;;6.60;;
59300;SDS011;45073;52.740;6.784;2023-12-04T04:59:47;15.55;;;8.00;;
59300;SDS011;45073;52.740;6.784;2023-12-04T05:02:13;18.63;;;8.32;;
59300;SDS011;45073;52.740;6.784;2023-12-04T05:04:38;13.13;;;6.35;;
59300;SDS011;45073;52.740;6.784;2023-12-04T05:07:04;15.02;;;6.68;;
59300;SDS011;45073;52.740;6.784;2023-12-04T05:09:30;16.33;;;6.15;;
59300;SDS011;45073;52.740;6.784;2023-12-04T05:11:55;15.55;;;6.32;;
59300;SDS011;45073;52.740;6.784;2023-12-04T05:14:21;18.40;;;7.30;;
59300;SDS011;45073;52.740;6.784;2023-12-04T05:16:46;13.35;;;6.28;;
59300;SDS011;45073;52.740;6.784;2023-12-04T05:19:12;13.70;;;5.82;;
59300;SDS011;45073;52.740;6.784;2023-12-04T05:21:37;14.10;;;6.10;;
59300;SDS011;45073;52.740;6.784;2023-12-04T05:24:03;12.18;;;5.55;;
59300;SDS011;45073;52.740;6.784;2023-12-04T05:26:29;10.18;;;5.32;;
59300;SDS011;45073;52.740;6.784;2023-12-04T05:28:54;13.00;;;6.95;;
59300;SDS011;45073;52.740;6.784;2023-12-04T05:31:20;13.50;;;6.65;;
59300;SDS011;45073;52.740;6.784;2023-12-04T05:33:45;14.52;;;6.38;;
59300;SDS011;45073;52.740;6.784;2023-12-04T05:36:11;14.32;;;6.15;;
59300;SDS011;45073;52.740;6.784;2023-12-04T05:38:37;15.15;;;6.22;;
59300;SDS011;45073;52.740;6.784;2023-12-04T05:41:02;14.07;;;6.60;;
59300;SDS011;45073;52.740;6.784;2023-12-04T05:43:28;14.50;;;5.80;;
59300;SDS011;45073;52.740;6.784;2023-12-04T05:45:54;12.32;;;6.60;;
59300;SDS011;45073;52.740;6.784;2023-12-04T05:48:19;15.07;;;6.57;;
59300;SDS011;45073;52.740;6.784;2023-12-04T05:50:45;14.75;;;5.32;;
59300;SDS011;45073;52.740;6.784;2023-12-04T05:53:11;14.38;;;6.15;;
59300;SDS011;45073;52.740;6.784;2023-12-04T05:55:36;13.35;;;5.10;;
59300;SDS011;45073;52.740;6.784;2023-12-04T05:58:02;14.70;;;6.88;;
59300;SDS011;45073;52.740;6.784;2023-12-04T06:00:27;14.32;;;7.07;;
59300;SDS011;45073;52.740;6.784;2023-12-04T06:02:53;16.23;;;7.40;;
59300;SDS011;45073;52.740;6.784;2023-12-04T06:05:18;12.40;;;5.95;;
59300;SDS011;45073;52.740;6.784;2023-12-04T06:07:44;13.48;;;6.28;;
59300;SDS011;45073;52.740;6.784;2023-12-04T06:10:10;13.82;;;6.60;;
59300;SDS011;45073;52.740;6.784;2023-12-04T06:12:35;16.23;;;7.53;;
59300;SDS011;45073;52.740;6.784;2023-12-04T06:15:01;16.27;;;7.40;;
59300;SDS011;45073;52.740;6.784;2023-12-04T06:17:27;13.70;;;5.90;;
59300;SDS011;45073;52.740;6.784;2023-12-04T06:19:53;11.15;;;4.65;;
59300;SDS011;45073;52.740;6.784;2023-12-04T06:22:18;12.63;;;6.18;;
59300;SDS011;45073;52.740;6.784;2023-12-04T06:24:45;13.77;;;6.15;;
59300;SDS011;45073;52.740;6.784;2023-12-04T06:27:12;14.68;;;6.68;;
59300;SDS011;45073;52.740;6.784;2023-12-04T06:29:41;17.65;;;6.95;;
59300;SDS011;45073;52.740;6.784;2023-12-04T06:32:08;12.77;;;5.68;;
59300;SDS011;45073;52.740;6.784;2023-12-04T06:34:34;15.23;;;6.10;;
59300;SDS011;45073;52.740;6.784;2023-12-04T06:37:01;18.33;;;6.85;;
59300;SDS011;45073;52.740;6.784;2023-12-04T06:39:29;17.13;;;6.75;;
59300;SDS011;45073;52.740;6.784;2023-12-04T06:41:58;16.50;;;7.38;;
59300;SDS011;45073;52.740;6.784;2023-12-04T06:44:24;16.88;;;6.32;;
59300;SDS011;45073;52.740;6.784;2023-12-04T06:46:50;13.07;;;6.63;;
59300;SDS011;45073;52.740;6.784;2023-12-04T06:49:17;12.38;;;6.03;;
59300;SDS011;45073;52.740;6.784;2023-12-04T06:51:43;19.55;;;5.90;;
59300;SDS011;45073;52.740;6.784;2023-12-04T06:54:09;13.07;;;5.90;;
59300;SDS011;45073;52.740;6.784;2023-12-04T06:56:36;15.02;;;6.53;;
59300;SDS011;45073;52.740;6.784;2023-12-04T06:59:01;12.68;;;5.43;;
59300;SDS011;45073;52.740;6.784;2023-12-04T07:01:27;14.02;;;5.50;;
59300;SDS011;45073;52.740;6.784;2023-12-04T07:03:52;10.60;;;4.95;;
59300;SDS011;45073;52.740;6.784;2023-12-04T07:06:18;15.65;;;6.90;;
59300;SDS011;45073;52.740;6.784;2023-12-04T07:08:44;16.98;;;6.80;;
59300;SDS011;45073;52.740;6.784;2023-12-04T07:11:09;13.80;;;6.15;;
59300;SDS011;45073;52.740;6.784;2023-12-04T07:13:35;14.27;;;5.43;;
59300;SDS011;45073;52.740;6.784;2023-12-04T07:16:01;12.73;;;6.20;;
59300;SDS011;45073;52.740;6.784;2023-12-04T07:18:28;14.68;;;7.15;;
59300;SDS011;45073;52.740;6.784;2023-12-04T07:20:53;18.38;;;6.05;;
59300;SDS011;45073;52.740;6.784;2023-12-04T07:23:19;16.00;;;7.03;;
59300;SDS011;45073;52.740;6.784;2023-12-04T07:25:44;16.60;;;5.60;;
59300;SDS011;45073;52.740;6.784;2023-12-04T07:28:11;14.88;;;6.70;;
59300;SDS011;45073;52.740;6.784;2023-12-04T07:30:36;12.30;;;5.35;;
59300;SDS011;45073;52.740;6.784;2023-12-04T07:33:03;12.90;;;6.47;;
59300;SDS011;45073;52.740;6.784;2023-12-04T07:35:29;14.40;;;4.97;;
59300;SDS011;45073;52.740;6.784;2023-12-04T07:37:54;13.40;;;5.18;;
59300;SDS011;45073;52.740;6.784;2023-12-04T07:40:20;14.68;;;6.05;;
59300;SDS011;45073;52.740;6.784;2023-12-04T07:42:47;13.93;;;6.38;;
59300;SDS011;45073;52.740;6.784;2023-12-04T07:45:13;16.67;;;6.30;;
59300;SDS011;45073;52.740;6.784;2023-12-04T07:47:40;12.27;;;5.75;;
59300;SDS011;45073;52.740;6.784;2023-12-04T07:50:06;15.73;;;5.88;;
59300;SDS011;45073;52.740;6.784;2023-12-04T07:52:32;14.20;;;5.88;;
59300;SDS011;45073;52.740;6.784;2023-12-04T07:54:58;14.73;;;6.60;;
59300;SDS011;45073;52.740;6.784;2023-12-04T07:57:24;14.15;;;6.40;;
59300;SDS011;45073;52.740;6.784;2023-12-04T07:59:49;14.63;;;6.93;;
59300;SDS011;45073;52.740;6.784;2023-12-04T08:02:15;14.18;;;5.45;;
59300;SDS011;45073;52.740;6.784;2023-12-04T08:04:40;12.05;;;5.78;;
59300;SDS011;45073;52.740;6.784;2023-12-04T08:07:06;13.38;;;5.95;;
59300;SDS011;45073;52.740;6.784;2023-12-04T08:09:31;16.23;;;5.82;;
59300;SDS011;45073;52.740;6.784;2023-12-04T08:11:57;14.80;;;6.95;;
59300;SDS011;45073;52.740;6.784;2023-12-04T08:14:24;14.77;;;6.90;;
59300;SDS011;45073;52.740;6.784;2023-12-04T08:16:49;14.55;;;5.25;;
59300;SDS011;45073;52.740;6.784;2023-12-04T08:19:15;12.25;;;5.32;;
59300;SDS011;45073;52.740;6.784;2023-12-04T08:21:41;12.15;;;5.18;;
59300;SDS011;45073;52.740;6.784;2023-12-04T08:24:07;14.32;;;6.65;;
59300;SDS011;45073;52.740;6.784;2023-12-04T08:26:32;10.68;;;4.72;;
59300;SDS011;45073;52.740;6.784;2023-12-04T08:28:58;10.75;;;3.85;;
59300;SDS011;45073;52.740;6.784;2023-12-04T08:31:24;11.52;;;4.82;;
59300;SDS011;45073;52.740;6.784;2023-12-04T08:33:50;12.57;;;5.13;;
59300;SDS011;45073;52.740;6.784;2023-12-04T08:36:15;12.20;;;5.38;;
59300;SDS011;45073;52.740;6.784;2023-12-04T08:38:41;12.02;;;5.20;;
59300;SDS011;45073;52.740;6.784;2023-12-04T08:41:07;11.45;;;4.88;;
59300;SDS011;45073;52.740;6.784;2023-12-04T08:43:32;14.02;;;6.40;;
59300;SDS011;45073;52.740;6.784;2023-12-04T08:45:58;14.05;;;6.13;;
59300;SDS011;45073;52.740;6.784;2023-12-04T08:48:25;10.95;;;4.90;;
59300;SDS011;45073;52.740;6.784;2023-12-04T08:50:51;12.20;;;5.05;;
59300;SDS011;45073;52.740;6.784;2023-12-04T08:53:16;13.50;;;5.32;;
59300;SDS011;45073;52.740;6.784;2023-12-04T08:55:42;11.75;;;5.22;;
59300;SDS011;45073;52.740;6.784;2023-12-04T08:58:07;10.60;;;4.70;;
59300;SDS011;45073;52.740;6.784;2023-12-04T09:00:33;11.00;;;4.88;;
59300;SDS011;45073;52.740;6.784;2023-12-04T09:03:01;10.02;;;4.30;;
59300;SDS011;45073;52.740;6.784;2023-12-04T09:05:27;10.85;;;4.07;;
59300;SDS011;45073;52.740;6.784;2023-12-04T09:07:56;9.90;;;4.82;;
59300;SDS011;45073;52.740;6.784;2023-12-04T09:10:21;7.90;;;3.60;;
59300;SDS011;45073;52.740;6.784;2023-12-04T09:12:47;11.18;;;4.57;;
59300;SDS011;45073;52.740;6.784;2023-12-04T09:15:12;9.77;;;3.95;;
59300;SDS011;45073;52.740;6.784;2023-12-04T09:17:38;12.55;;;5.07;;
59300;SDS011;45073;52.740;6.784;2023-12-04T09:20:04;13.57;;;5.63;;
59300;SDS011;45073;52.740;6.784;2023-12-04T09:22:30;11.70;;;5.32;;
59300;SDS011;45073;52.740;6.784;2023-12-04T09:24:56;12.50;;;5.03;;
59300;SDS011;45073;52.740;6.784;2023-12-04T09:27:22;11.45;;;5.53;;
59300;SDS011;45073;52.740;6.784;2023-12-04T09:29:48;15.27;;;5.97;;
59300;SDS011;45073;52.740;6.784;2023-12-04T09:32:14;12.07;;;5.13;;
59300;SDS011;45073;52.740;6.784;2023-12-04T09:34:39;14.02;;;4.88;;
59300;SDS011;45073;52.740;6.784;2023-12-04T09:37:05;10.05;;;4.43;;
59300;SDS011;45073;52.740;6.784;2023-12-04T09:39:32;11.25;;;5.30;;
59300;SDS011;45073;52.740;6.784;2023-12-04T09:41:58;11.15;;;4.25;;
59300;SDS011;45073;52.740;6.784;2023-12-04T09:44:24;12.60;;;4.53;;
59300;SDS011;45073;52.740;6.784;2023-12-04T09:46:53;12.30;;;4.63;;
59300;SDS011;45073;52.740;6.784;2023-12-04T09:49:20;12.27;;;4.57;;
59300;SDS011;45073;52.740;6.784;2023-12-04T09:51:46;10.65;;;4.00;;
59300;SDS011;45073;52.740;6.784;2023-12-04T09:54:12;11.55;;;4.55;;
59300;SDS011;45073;52.740;6.784;2023-12-04T09:56:41;10.45;;;5.13;;
59300;SDS011;45073;52.740;6.784;2023-12-04T09:59:08;9.90;;;4.50;;
59300;SDS011;45073;52.740;6.784;2023-12-04T10:01:39;9.90;;;4.18;;
59300;SDS011;45073;52.740;6.784;2023-12-04T10:04:06;10.80;;;4.60;;
59300;SDS011;45073;52.740;6.784;2023-12-04T10:06:32;13.13;;;5.43;;
59300;SDS011;45073;52.740;6.784;2023-12-04T10:08:59;11.38;;;4.65;;
59300;SDS011;45073;52.740;6.784;2023-12-04T10:11:24;10.55;;;4.72;;
59300;SDS011;45073;52.740;6.784;2023-12-04T10:13:51;10.32;;;4.90;;
59300;SDS011;45073;52.740;6.784;2023-12-04T10:16:31;11.60;;;4.88;;
59300;SDS011;45073;52.740;6.784;2023-12-04T10:19:01;8.65;;;3.92;;
59300;SDS011;45073;52.740;6.784;2023-12-04T10:21:48;10.68;;;4.40;;
59300;SDS011;45073;52.740;6.784;2023-12-04T10:24:31;11.50;;;4.70;;
59300;SDS011;45073;52.740;6.784;2023-12-04T10:27:02;11.27;;;4.13;;
59300;SDS011;45073;52.740;6.784;2023-12-04T10:29:46;9.00;;;4.32;;
59300;SDS011;45073;52.740;6.784;2023-12-04T10:32:17;10.98;;;4.32;;
59300;SDS011;45073;52.740;6.784;2023-12-04T10:34:46;13.02;;;4.70;;
59300;SDS011;45073;52.740;6.784;2023-12-04T10:37:12;11.25;;;4.60;;
59300;SDS011;45073;52.740;6.784;2023-12-04T10:39:48;11.07;;;4.80;;
59300;SDS011;45073;52.740;6.784;2023-12-04T10:42:28;9.88;;;3.67;;
59300;SDS011;45073;52.740;6.784;2023-12-04T10:44:55;10.02;;;3.90;;
59300;SDS011;45073;52.740;6.784;2023-12-04T10:47:22;13.65;;;5.22;;
59300;SDS011;45073;52.740;6.784;2023-12-04T10:49:51;11.00;;;4.47;;
59300;SDS011;45073;52.740;6.784;2023-12-04T10:52:18;11.13;;;4.50;;
59300;SDS011;45073;52.740;6.784;2023-12-04T10:54:47;13.30;;;4.55;;
59300;SDS011;45073;52.740;6.784;2023-12-04T10:57:16;9.70;;;4.10;;
59300;SDS011;45073;52.740;6.784;2023-12-04T10:59:46;9.02;;;3.08;;
59300;SDS011;45073;52.740;6.784;2023-12-04T11:02:14;6.13;;;2.85;;
59300;SDS011;45073;52.740;6.784;2023-12-04T11:04:47;9.77;;;4.28;;
59300;SDS011;45073;52.740;6.784;2023-12-04T11:07:15;10.20;;;3.60;;
59300;SDS011;45073;52.740;6.784;2023-12-04T11:09:42;8.68;;;3.47;;
59300;SDS011;45073;52.740;6.784;2023-12-04T11:12:09;10.68;;;3.72;;
59300;SDS011;45073;52.740;6.784;2023-12-04T11:14:43;10.10;;;4.60;;
59300;SDS011;45073;52.740;6.784;2023-12-04T11:17:15;12.38;;;5.10;;
59300;SDS011;45073;52.740;6.784;2023-12-04T11:19:49;9.77;;;4.35;;
59300;SDS011;45073;52.740;6.784;2023-12-04T11:22:22;10.35;;;4.65;;
59300;SDS011;45073;52.740;6.784;2023-12-04T11:24:50;12.20;;;4.65;;
59300;SDS011;45073;52.740;6.784;2023-12-04T11:27:17;11.18;;;4.30;;
59300;SDS011;45073;52.740;6.784;2023-12-04T11:29:44;9.52;;;3.65;;
59300;SDS011;45073;52.740;6.784;2023-12-04T11:32:15;7.95;;;3.40;;
59300;SDS011;45073;52.740;6.784;2023-12-04T11:34:51;10.95;;;4.75;;
59300;SDS011;45073;52.740;6.784;2023-12-04T11:37:21;12.32;;;4.50;;
59300;SDS011;45073;52.740;6.784;2023-12-04T11:39:49;10.18;;;4.00;;
59300;SDS011;45073;52.740;6.784;2023-12-04T11:42:18;10.77;;;4.43;;
59300;SDS011;45073;52.740;6.784;2023-12-04T11:44:47;11.18;;;4.70;;
59300;SDS011;45073;52.740;6.784;2023-12-04T11:47:13;9.27;;;4.15;;
59300;SDS011;45073;52.740;6.784;2023-12-04T11:49:39;11.80;;;4.80;;
59300;SDS011;45073;52.740;6.784;2023-12-04T11:52:05;10.13;;;5.10;;
59300;SDS011;45073;52.740;6.784;2023-12-04T11:54:55;12.23;;;4.45;;
59300;SDS011;45073;52.740;6.784;2023-12-04T11:57:32;9.43;;;3.67;;
59300;SDS011;45073;52.740;6.784;2023-12-04T12:00:12;8.70;;;3.83;;
59300;SDS011;45073;52.740;6.784;2023-12-04T12:05:20;11.98;;;4.45;;
59300;SDS011;45073;52.740;6.784;2023-12-04T12:07:46;10.00;;;4.30;;
59300;SDS011;45073;52.740;6.784;2023-12-04T12:10:12;11.73;;;4.82;;
59300;SDS011;45073;52.740;6.784;2023-12-04T12:12:44;9.80;;;4.60;;
59300;SDS011;45073;52.740;6.784;2023-12-04T12:15:11;9.20;;;3.78;;
59300;SDS011;45073;52.740;6.784;2023-12-04T12:17:37;10.55;;;3.58;;
59300;SDS011;45073;52.740;6.784;2023-12-04T12:20:05;10.65;;;4.38;;
59300;SDS011;45073;52.740;6.784;2023-12-04T12:22:32;7.70;;;3.67;;
59300;SDS011;45073;52.740;6.784;2023-12-04T12:24:59;6.15;;;2.20;;
59300;SDS011;45073;52.740;6.784;2023-12-04T12:27:25;9.25;;;3.88;;
59300;SDS011;45073;52.740;6.784;2023-12-04T12:29:51;9.32;;;3.60;;
59300;SDS011;45073;52.740;6.784;2023-12-04T12:32:16;10.65;;;3.78;;
59300;SDS011;45073;52.740;6.784;2023-12-04T12:34:42;8.75;;;3.55;;
59300;SDS011;45073;52.740;6.784;2023-12-04T12:37:08;12.75;;;4.57;;
59300;SDS011;45073;52.740;6.784;2023-12-04T12:39:34;11.68;;;4.38;;
59300;SDS011;45073;52.740;6.784;2023-12-04T12:42:00;11.70;;;4.20;;
59300;SDS011;45073;52.740;6.784;2023-12-04T12:44:29;10.98;;;4.57;;
59300;SDS011;45073;52.740;6.784;2023-12-04T12:47:04;10.45;;;4.10;;
59300;SDS011;45073;52.740;6.784;2023-12-04T12:49:30;7.50;;;2.85;;
59300;SDS011;45073;52.740;6.784;2023-12-04T12:51:56;8.25;;;3.30;;
59300;SDS011;45073;52.740;6.784;2023-12-04T12:54:25;10.70;;;4.30;;
59300;SDS011;45073;52.740;6.784;2023-12-04T12:56:51;11.25;;;4.15;;
59300;SDS011;45073;52.740;6.784;2023-12-04T12:59:16;8.88;;;3.60;;
59300;SDS011;45073;52.740;6.784;2023-12-04T13:01:47;8.82;;;3.67;;
59300;SDS011;45073;52.740;6.784;2023-12-04T13:04:13;8.77;;;3.50;;
59300;SDS011;45073;52.740;6.784;2023-12-04T13:06:42;11.10;;;4.25;;
59300;SDS011;45073;52.740;6.784;2023-12-04T13:09:08;8.77;;;3.70;;
59300;SDS011;45073;52.740;6.784;2023-12-04T13:11:33;9.70;;;3.75;;
59300;SDS011;45073;52.740;6.784;2023-12-04T13:13:59;11.77;;;4.07;;
59300;SDS011;45073;52.740;6.784;2023-12-04T13:16:26;10.02;;;4.50;;
59300;SDS011;45073;52.740;6.784;2023-12-04T13:18:51;9.45;;;4.03;;
59300;SDS011;45073;52.740;6.784;2023-12-04T13:21:17;11.85;;;4.82;;
59300;SDS011;45073;52.740;6.784;2023-12-04T13:23:42;9.63;;;4.13;;
59300;SDS011;45073;52.740;6.784;2023-12-04T13:26:08;10.38;;;4.65;;
59300;SDS011;45073;52.740;6.784;2023-12-04T13:28:36;9.55;;;4.40;;
59300;SDS011;45073;52.740;6.784;2023-12-04T13:31:03;9.93;;;4.40;;
59300;SDS011;45073;52.740;6.784;2023-12-04T13:33:29;11.20;;;3.85;;
59300;SDS011;45073;52.740;6.784;2023-12-04T13:35:56;10.00;;;3.80;;
59300;SDS011;45073;52.740;6.784;2023-12-04T13:38:22;8.98;;;4.03;;
59300;SDS011;45073;52.740;6.784;2023-12-04T13:40:48;10.32;;;4.38;;
59300;SDS011;45073;52.740;6.784;2023-12-04T13:43:25;9.43;;;3.70;;
59300;SDS011;45073;52.740;6.784;2023-12-04T13:46:10;8.63;;;4.03;;
59300;SDS011;45073;52.740;6.784;2023-12-04T13:48:36;9.63;;;4.32;;
59300;SDS011;45073;52.740;6.784;2023-12-04T13:51:05;10.77;;;4.15;;
59300;SDS011;45073;52.740;6.784;2023-12-04T13:53:32;12.30;;;4.45;;
59300;SDS011;45073;52.740;6.784;2023-12-04T13:55:58;12.15;;;4.80;;
59300;SDS011;45073;52.740;6.784;2023-12-04T13:58:26;8.98;;;4.13;;
59300;SDS011;45073;52.740;6.784;2023-12-04T14:01:01;9.88;;;4.30;;
59300;SDS011;45073;52.740;6.784;2023-12-04T14:03:36;9.13;;;3.55;;
59300;SDS011;45073;52.740;6.784;2023-12-04T14:06:02;9.38;;;4.22;;
59300;SDS011;45073;52.740;6.784;2023-12-04T14:08:28;8.65;;;3.13;;
59300;SDS011;45073;52.740;6.784;2023-12-04T14:10:53;10.20;;;4.72;;
59300;SDS011;45073;52.740;6.784;2023-12-04T14:13:19;9.57;;;3.92;;
59300;SDS011;45073;52.740;6.784;2023-12-04T14:15:45;10.32;;;4.32;;
59300;SDS011;45073;52.740;6.784;2023-12-04T14:18:11;10.35;;;3.85;;
59300;SDS011;45073;52.740;6.784;2023-12-04T14:20:36;9.02;;;4.00;;
59300;SDS011;45073;52.740;6.784;2023-12-04T14:23:02;9.38;;;4.18;;
59300;SDS011;45073;52.740;6.784;2023-12-04T14:25:29;11.00;;;4.22;;
59300;SDS011;45073;52.740;6.784;2023-12-04T14:27:54;10.25;;;4.18;;
59300;SDS011;45073;52.740;6.784;2023-12-04T14:30:20;11.32;;;4.78;;
59300;SDS011;45073;52.740;6.784;2023-12-04T14:32:45;10.70;;;4.35;;
59300;SDS011;45073;52.740;6.784;2023-12-04T14:35:11;9.00;;;3.67;;